sensor_id;sensor_type;location;lat;lon;timestamp;P1;durP1;ratioP1;P2;durP2;ratioP2
32138;SDS011;18644;48.700;9.210;2022-09-17T00:01:13;0.52;;;0.50;;
32138;SDS011;18644;48.700;9.210;2022-09-17T00:03:43;1.20;;;0.70;;
32138;SDS011;18644;48.700;9.210;2022-09-17T00:06:14;0.50;;;0.50;;
32138;SDS011;18644;48.700;9.210;2022-09-17T00:08:41;2.42;;;0.73;;
32138;SDS011;18644;48.700;9.210;2022-09-17T00:11:11;0.57;;;0.50;;
32138;SDS011;18644;48.700;9.210;2022-09-17T00:13:40;1.23;;;0.80;;
32138;SDS011;18644;48.700;9.210;2022-09-17T00:16:09;0.60;;;0.55;;
32138;SDS011;18644;48.700;9.210;2022-09-17T00:18:37;0.82;;;0.60;;
32138;SDS011;18644;48.700;9.210;2022-09-17T00:21:06;0.77;;;0.50;;
32138;SDS011;18644;48.700;9.210;2022-09-17T00:23:33;0.60;;;0.47;;
32138;SDS011;18644;48.700;9.210;2022-09-17T00:26:03;0.50;;;0.50;;
32138;SDS011;18644;48.700;9.210;2022-09-17T00:28:33;2.38;;;0.75;;
32138;SDS011;18644;48.700;9.210;2022-09-17T00:30:59;1.25;;;0.70;;
32138;SDS011;18644;48.700;9.210;2022-09-17T00:33:29;1.85;;;0.60;;
32138;SDS011;18644;48.700;9.210;2022-09-17T00:35:57;0.50;;;0.50;;
32138;SDS011;18644;48.700;9.210;2022-09-17T00:38:24;1.75;;;0.60;;
32138;SDS011;18644;48.700;9.210;2022-09-17T00:40:52;0.75;;;0.50;;
32138;SDS011;18644;48.700;9.210;2022-09-17T00:43:36;0.70;;;0.70;;
32138;SDS011;18644;48.700;9.210;2022-09-17T00:46:10;0.60;;;0.60;;
32138;SDS011;18644;48.700;9.210;2022-09-17T00:48:48;0.57;;;0.57;;
32138;SDS011;18644;48.700;9.210;2022-09-17T00:51:16;0.68;;;0.50;;
32138;SDS011;18644;48.700;9.210;2022-09-17T00:53:46;0.95;;;0.65;;
32138;SDS011;18644;48.700;9.210;2022-09-17T00:56:15;2.03;;;0.52;;
32138;SDS011;18644;48.700;9.210;2022-09-17T00:58:52;0.60;;;0.60;;
32138;SDS011;18644;48.700;9.210;2022-09-17T01:01:21;0.40;;;0.40;;
32138;SDS011;18644;48.700;9.210;2022-09-17T01:03:48;0.70;;;0.60;;
32138;SDS011;18644;48.700;9.210;2022-09-17T01:06:16;0.70;;;0.70;;
32138;SDS011;18644;48.700;9.210;2022-09-17T01:11:51;0.70;;;0.50;;
32138;SDS011;18644;48.700;9.210;2022-09-17T01:14:45;0.63;;;0.63;;
32138;SDS011;18644;48.700;9.210;2022-09-17T01:20:17;2.92;;;1.13;;
32138;SDS011;18644;48.700;9.210;2022-09-17T01:23:08;0.70;;;0.50;;
32138;SDS011;18644;48.700;9.210;2022-09-17T01:26:11;1.02;;;0.60;;
32138;SDS011;18644;48.700;9.210;2022-09-17T01:29:00;0.75;;;0.63;;
32138;SDS011;18644;48.700;9.210;2022-09-17T01:31:38;0.60;;;0.60;;
32138;SDS011;18644;48.700;9.210;2022-09-17T01:34:17;0.80;;;0.65;;
32138;SDS011;18644;48.700;9.210;2022-09-17T01:36:58;0.68;;;0.60;;
32138;SDS011;18644;48.700;9.210;2022-09-17T01:39:31;0.70;;;0.70;;
32138;SDS011;18644;48.700;9.210;2022-09-17T01:42:11;1.77;;;0.80;;
32138;SDS011;18644;48.700;9.210;2022-09-17T01:44:47;1.73;;;0.77;;
32138;SDS011;18644;48.700;9.210;2022-09-17T01:47:23;1.05;;;0.90;;
32138;SDS011;18644;48.700;9.210;2022-09-17T01:49:56;0.88;;;0.60;;
32138;SDS011;18644;48.700;9.210;2022-09-17T01:52:30;0.70;;;0.70;;
32138;SDS011;18644;48.700;9.210;2022-09-17T01:54:59;1.67;;;0.60;;
32138;SDS011;18644;48.700;9.210;2022-09-17T01:57:31;3.05;;;0.90;;
32138;SDS011;18644;48.700;9.210;2022-09-17T02:00:03;0.70;;;0.70;;
32138;SDS011;18644;48.700;9.210;2022-09-17T02:05:06;0.60;;;0.60;;
32138;SDS011;18644;48.700;9.210;2022-09-17T02:07:37;1.60;;;0.70;;
32138;SDS011;18644;48.700;9.210;2022-09-17T02:10:06;3.75;;;0.70;;
32138;SDS011;18644;48.700;9.210;2022-09-17T02:12:38;0.82;;;0.65;;
32138;SDS011;18644;48.700;9.210;2022-09-17T02:15:11;0.57;;;0.57;;
32138;SDS011;18644;48.700;9.210;2022-09-17T02:17:45;1.75;;;0.80;;
32138;SDS011;18644;48.700;9.210;2022-09-17T02:20:16;1.02;;;0.73;;
32138;SDS011;18644;48.700;9.210;2022-09-17T02:22:46;0.95;;;0.60;;
32138;SDS011;18644;48.700;9.210;2022-09-17T02:25:17;1.20;;;0.70;;
32138;SDS011;18644;48.700;9.210;2022-09-17T02:27:51;2.30;;;0.75;;
32138;SDS011;18644;48.700;9.210;2022-09-17T02:30:27;0.65;;;0.60;;
32138;SDS011;18644;48.700;9.210;2022-09-17T02:32:55;2.50;;;0.90;;
32138;SDS011;18644;48.700;9.210;2022-09-17T02:35:22;1.08;;;0.82;;
32138;SDS011;18644;48.700;9.210;2022-09-17T02:37:49;1.95;;;0.75;;
32138;SDS011;18644;48.700;9.210;2022-09-17T02:40:17;2.03;;;1.08;;
32138;SDS011;18644;48.700;9.210;2022-09-17T02:42:55;1.35;;;0.80;;
32138;SDS011;18644;48.700;9.210;2022-09-17T02:45:49;0.95;;;0.73;;
32138;SDS011;18644;48.700;9.210;2022-09-17T02:48:33;0.75;;;0.60;;
32138;SDS011;18644;48.700;9.210;2022-09-17T02:51:22;1.50;;;0.70;;
32138;SDS011;18644;48.700;9.210;2022-09-17T02:54:01;1.40;;;0.70;;
32138;SDS011;18644;48.700;9.210;2022-09-17T02:56:39;2.35;;;1.00;;
32138;SDS011;18644;48.700;9.210;2022-09-17T02:59:14;0.60;;;0.60;;
32138;SDS011;18644;48.700;9.210;2022-09-17T03:01:48;3.38;;;1.20;;
32138;SDS011;18644;48.700;9.210;2022-09-17T03:04:23;3.60;;;0.88;;
32138;SDS011;18644;48.700;9.210;2022-09-17T03:06:52;1.92;;;0.82;;
32138;SDS011;18644;48.700;9.210;2022-09-17T03:09:20;1.55;;;0.90;;
32138;SDS011;18644;48.700;9.210;2022-09-17T03:11:47;1.00;;;0.80;;
32138;SDS011;18644;48.700;9.210;2022-09-17T03:14:14;0.93;;;0.80;;
32138;SDS011;18644;48.700;9.210;2022-09-17T03:16:44;3.05;;;1.10;;
32138;SDS011;18644;48.700;9.210;2022-09-17T03:19:11;2.17;;;0.82;;
32138;SDS011;18644;48.700;9.210;2022-09-17T03:21:40;0.77;;;0.77;;
32138;SDS011;18644;48.700;9.210;2022-09-17T03:24:06;0.57;;;0.57;;
32138;SDS011;18644;48.700;9.210;2022-09-17T03:26:35;4.60;;;1.27;;
32138;SDS011;18644;48.700;9.210;2022-09-17T03:29:02;3.58;;;1.00;;
32138;SDS011;18644;48.700;9.210;2022-09-17T03:31:29;0.70;;;0.70;;
32138;SDS011;18644;48.700;9.210;2022-09-17T03:33:56;2.90;;;1.33;;
32138;SDS011;18644;48.700;9.210;2022-09-17T03:36:23;1.38;;;0.90;;
32138;SDS011;18644;48.700;9.210;2022-09-17T03:38:53;1.75;;;0.60;;
32138;SDS011;18644;48.700;9.210;2022-09-17T03:41:20;1.02;;;0.80;;
32138;SDS011;18644;48.700;9.210;2022-09-17T03:43:48;1.55;;;0.70;;
32138;SDS011;18644;48.700;9.210;2022-09-17T03:46:15;1.65;;;0.70;;
32138;SDS011;18644;48.700;9.210;2022-09-17T03:48:42;2.30;;;0.82;;
32138;SDS011;18644;48.700;9.210;2022-09-17T03:51:09;0.93;;;0.77;;
32138;SDS011;18644;48.700;9.210;2022-09-17T03:53:37;0.85;;;0.80;;
32138;SDS011;18644;48.700;9.210;2022-09-17T03:56:05;2.58;;;0.70;;
32138;SDS011;18644;48.700;9.210;2022-09-17T03:58:33;5.95;;;1.05;;
32138;SDS011;18644;48.700;9.210;2022-09-17T04:01:00;0.57;;;0.52;;
32138;SDS011;18644;48.700;9.210;2022-09-17T04:03:28;1.63;;;0.90;;
32138;SDS011;18644;48.700;9.210;2022-09-17T04:05:56;1.40;;;0.80;;
32138;SDS011;18644;48.700;9.210;2022-09-17T04:08:22;1.13;;;0.73;;
32138;SDS011;18644;48.700;9.210;2022-09-17T04:10:49;1.77;;;0.90;;
32138;SDS011;18644;48.700;9.210;2022-09-17T04:13:18;1.80;;;0.80;;
32138;SDS011;18644;48.700;9.210;2022-09-17T04:15:46;2.72;;;0.98;;
32138;SDS011;18644;48.700;9.210;2022-09-17T04:18:13;1.63;;;0.63;;
32138;SDS011;18644;48.700;9.210;2022-09-17T04:20:40;2.42;;;0.93;;
32138;SDS011;18644;48.700;9.210;2022-09-17T04:23:07;2.55;;;0.73;;
32138;SDS011;18644;48.700;9.210;2022-09-17T04:25:36;3.58;;;0.85;;
32138;SDS011;18644;48.700;9.210;2022-09-17T04:28:03;2.75;;;0.95;;
32138;SDS011;18644;48.700;9.210;2022-09-17T04:30:31;3.20;;;1.00;;
32138;SDS011;18644;48.700;9.210;2022-09-17T04:32:58;5.85;;;1.38;;
32138;SDS011;18644;48.700;9.210;2022-09-17T04:35:25;1.52;;;0.80;;
32138;SDS011;18644;48.700;9.210;2022-09-17T04:37:52;4.25;;;0.73;;
32138;SDS011;18644;48.700;9.210;2022-09-17T04:40:19;4.43;;;1.08;;
32138;SDS011;18644;48.700;9.210;2022-09-17T04:42:47;2.05;;;0.90;;
32138;SDS011;18644;48.700;9.210;2022-09-17T04:45:13;2.55;;;1.10;;
32138;SDS011;18644;48.700;9.210;2022-09-17T04:47:42;3.20;;;1.02;;
32138;SDS011;18644;48.700;9.210;2022-09-17T04:50:09;4.07;;;1.10;;
32138;SDS011;18644;48.700;9.210;2022-09-17T04:52:36;2.30;;;0.73;;
32138;SDS011;18644;48.700;9.210;2022-09-17T04:55:07;2.50;;;1.35;;
32138;SDS011;18644;48.700;9.210;2022-09-17T04:57:34;1.17;;;0.88;;
32138;SDS011;18644;48.700;9.210;2022-09-17T05:00:02;2.05;;;0.88;;
32138;SDS011;18644;48.700;9.210;2022-09-17T05:02:30;3.50;;;0.70;;
32138;SDS011;18644;48.700;9.210;2022-09-17T05:04:58;2.22;;;0.70;;
32138;SDS011;18644;48.700;9.210;2022-09-17T05:07:25;2.22;;;0.88;;
32138;SDS011;18644;48.700;9.210;2022-09-17T05:09:52;1.48;;;0.95;;
32138;SDS011;18644;48.700;9.210;2022-09-17T05:12:19;3.20;;;1.02;;
32138;SDS011;18644;48.700;9.210;2022-09-17T05:14:46;7.47;;;1.50;;
32138;SDS011;18644;48.700;9.210;2022-09-17T05:17:13;2.88;;;1.02;;
32138;SDS011;18644;48.700;9.210;2022-09-17T05:19:40;3.20;;;1.00;;
32138;SDS011;18644;48.700;9.210;2022-09-17T05:22:08;3.55;;;0.90;;
32138;SDS011;18644;48.700;9.210;2022-09-17T05:24:35;3.97;;;1.52;;
32138;SDS011;18644;48.700;9.210;2022-09-17T05:27:03;1.48;;;0.75;;
32138;SDS011;18644;48.700;9.210;2022-09-17T05:29:30;4.28;;;1.20;;
32138;SDS011;18644;48.700;9.210;2022-09-17T05:31:57;4.05;;;1.00;;
32138;SDS011;18644;48.700;9.210;2022-09-17T05:34:24;4.13;;;0.70;;
32138;SDS011;18644;48.700;9.210;2022-09-17T05:36:51;2.03;;;0.95;;
32138;SDS011;18644;48.700;9.210;2022-09-17T05:39:19;1.40;;;0.80;;
32138;SDS011;18644;48.700;9.210;2022-09-17T05:41:49;3.55;;;1.15;;
32138;SDS011;18644;48.700;9.210;2022-09-17T05:44:16;6.57;;;1.10;;
32138;SDS011;18644;48.700;9.210;2022-09-17T05:46:43;2.20;;;1.17;;
32138;SDS011;18644;48.700;9.210;2022-09-17T05:49:10;4.05;;;1.65;;
32138;SDS011;18644;48.700;9.210;2022-09-17T05:51:39;3.65;;;1.00;;
32138;SDS011;18644;48.700;9.210;2022-09-17T05:54:06;5.15;;;1.20;;
32138;SDS011;18644;48.700;9.210;2022-09-17T05:56:34;2.25;;;1.08;;
32138;SDS011;18644;48.700;9.210;2022-09-17T05:59:01;0.95;;;0.70;;
32138;SDS011;18644;48.700;9.210;2022-09-17T06:01:28;2.08;;;0.82;;
32138;SDS011;18644;48.700;9.210;2022-09-17T06:03:55;2.38;;;0.80;;
32138;SDS011;18644;48.700;9.210;2022-09-17T06:06:22;1.58;;;0.98;;
32138;SDS011;18644;48.700;9.210;2022-09-17T06:08:53;1.63;;;0.93;;
32138;SDS011;18644;48.700;9.210;2022-09-17T06:11:20;1.75;;;1.08;;
32138;SDS011;18644;48.700;9.210;2022-09-17T06:13:48;2.25;;;1.20;;
32138;SDS011;18644;48.700;9.210;2022-09-17T06:16:19;1.40;;;0.98;;
32138;SDS011;18644;48.700;9.210;2022-09-17T06:18:46;1.08;;;0.80;;
32138;SDS011;18644;48.700;9.210;2022-09-17T06:21:14;2.33;;;1.00;;
32138;SDS011;18644;48.700;9.210;2022-09-17T06:23:42;5.72;;;1.10;;
32138;SDS011;18644;48.700;9.210;2022-09-17T06:26:09;1.33;;;0.93;;
32138;SDS011;18644;48.700;9.210;2022-09-17T06:28:37;4.57;;;1.40;;
32138;SDS011;18644;48.700;9.210;2022-09-17T06:31:06;1.92;;;1.08;;
32138;SDS011;18644;48.700;9.210;2022-09-17T06:33:35;1.00;;;0.80;;
32138;SDS011;18644;48.700;9.210;2022-09-17T06:36:02;5.45;;;1.40;;
32138;SDS011;18644;48.700;9.210;2022-09-17T06:38:32;3.53;;;1.27;;
32138;SDS011;18644;48.700;9.210;2022-09-17T06:41:00;1.98;;;1.05;;
32138;SDS011;18644;48.700;9.210;2022-09-17T06:43:28;1.75;;;0.90;;
32138;SDS011;18644;48.700;9.210;2022-09-17T06:45:56;5.18;;;1.63;;
32138;SDS011;18644;48.700;9.210;2022-09-17T06:48:26;3.58;;;1.40;;
32138;SDS011;18644;48.700;9.210;2022-09-17T06:50:54;3.08;;;1.02;;
32138;SDS011;18644;48.700;9.210;2022-09-17T06:53:27;7.82;;;1.75;;
32138;SDS011;18644;48.700;9.210;2022-09-17T06:55:55;5.00;;;1.20;;
32138;SDS011;18644;48.700;9.210;2022-09-17T06:58:23;3.28;;;1.10;;
32138;SDS011;18644;48.700;9.210;2022-09-17T07:00:50;2.80;;;1.05;;
32138;SDS011;18644;48.700;9.210;2022-09-17T07:03:18;4.15;;;1.10;;
32138;SDS011;18644;48.700;9.210;2022-09-17T07:05:46;2.80;;;1.10;;
32138;SDS011;18644;48.700;9.210;2022-09-17T07:08:13;4.95;;;1.58;;
32138;SDS011;18644;48.700;9.210;2022-09-17T07:10:39;3.28;;;1.05;;
32138;SDS011;18644;48.700;9.210;2022-09-17T07:13:06;3.25;;;0.95;;
32138;SDS011;18644;48.700;9.210;2022-09-17T07:15:33;3.85;;;1.40;;
32138;SDS011;18644;48.700;9.210;2022-09-17T07:18:06;1.92;;;0.90;;
32138;SDS011;18644;48.700;9.210;2022-09-17T07:20:34;3.95;;;1.02;;
32138;SDS011;18644;48.700;9.210;2022-09-17T07:23:02;2.70;;;1.05;;
32138;SDS011;18644;48.700;9.210;2022-09-17T07:25:29;2.17;;;0.98;;
32138;SDS011;18644;48.700;9.210;2022-09-17T07:27:56;1.08;;;0.65;;
32138;SDS011;18644;48.700;9.210;2022-09-17T07:30:23;2.35;;;1.00;;
32138;SDS011;18644;48.700;9.210;2022-09-17T07:32:50;2.80;;;1.20;;
32138;SDS011;18644;48.700;9.210;2022-09-17T07:35:17;2.47;;;1.02;;
32138;SDS011;18644;48.700;9.210;2022-09-17T07:37:44;3.28;;;0.90;;
32138;SDS011;18644;48.700;9.210;2022-09-17T07:40:12;2.92;;;1.20;;
32138;SDS011;18644;48.700;9.210;2022-09-17T07:42:39;1.30;;;0.80;;
32138;SDS011;18644;48.700;9.210;2022-09-17T07:45:07;2.28;;;0.95;;
32138;SDS011;18644;48.700;9.210;2022-09-17T07:47:37;2.47;;;0.90;;
32138;SDS011;18644;48.700;9.210;2022-09-17T07:50:06;3.47;;;0.90;;
32138;SDS011;18644;48.700;9.210;2022-09-17T07:52:34;1.52;;;1.02;;
32138;SDS011;18644;48.700;9.210;2022-09-17T07:55:00;2.67;;;1.10;;
32138;SDS011;18644;48.700;9.210;2022-09-17T07:57:29;1.83;;;1.10;;
32138;SDS011;18644;48.700;9.210;2022-09-17T07:59:55;2.13;;;0.77;;
32138;SDS011;18644;48.700;9.210;2022-09-17T08:02:23;2.25;;;0.80;;
32138;SDS011;18644;48.700;9.210;2022-09-17T08:04:49;2.55;;;0.90;;
32138;SDS011;18644;48.700;9.210;2022-09-17T08:07:17;1.25;;;0.80;;
32138;SDS011;18644;48.700;9.210;2022-09-17T08:09:44;1.42;;;0.80;;
32138;SDS011;18644;48.700;9.210;2022-09-17T08:12:10;1.30;;;0.90;;
32138;SDS011;18644;48.700;9.210;2022-09-17T08:14:39;3.65;;;1.25;;
32138;SDS011;18644;48.700;9.210;2022-09-17T08:17:06;1.20;;;0.80;;
32138;SDS011;18644;48.700;9.210;2022-09-17T08:19:33;0.75;;;0.70;;
32138;SDS011;18644;48.700;9.210;2022-09-17T08:22:00;2.20;;;0.90;;
32138;SDS011;18644;48.700;9.210;2022-09-17T08:24:27;2.03;;;0.85;;
32138;SDS011;18644;48.700;9.210;2022-09-17T08:26:54;1.40;;;0.60;;
32138;SDS011;18644;48.700;9.210;2022-09-17T08:29:21;0.93;;;0.80;;
32138;SDS011;18644;48.700;9.210;2022-09-17T08:31:49;1.13;;;0.90;;
32138;SDS011;18644;48.700;9.210;2022-09-17T08:34:16;3.80;;;1.20;;
32138;SDS011;18644;48.700;9.210;2022-09-17T08:36:43;2.58;;;0.98;;
32138;SDS011;18644;48.700;9.210;2022-09-17T08:39:09;6.75;;;1.25;;
32138;SDS011;18644;48.700;9.210;2022-09-17T08:41:41;5.47;;;1.40;;
32138;SDS011;18644;48.700;9.210;2022-09-17T08:44:23;2.40;;;1.00;;
32138;SDS011;18644;48.700;9.210;2022-09-17T08:46:56;1.67;;;1.13;;
32138;SDS011;18644;48.700;9.210;2022-09-17T08:49:29;4.05;;;1.02;;
32138;SDS011;18644;48.700;9.210;2022-09-17T08:52:14;3.85;;;0.93;;
32138;SDS011;18644;48.700;9.210;2022-09-17T08:55:13;3.97;;;1.05;;
32138;SDS011;18644;48.700;9.210;2022-09-17T08:57:58;2.92;;;1.50;;
32138;SDS011;18644;48.700;9.210;2022-09-17T09:00:49;3.05;;;1.30;;
32138;SDS011;18644;48.700;9.210;2022-09-17T09:03:26;3.67;;;1.30;;
32138;SDS011;18644;48.700;9.210;2022-09-17T09:06:02;3.80;;;1.20;;
32138;SDS011;18644;48.700;9.210;2022-09-17T09:08:32;3.28;;;1.20;;
32138;SDS011;18644;48.700;9.210;2022-09-17T09:11:05;3.33;;;1.30;;
32138;SDS011;18644;48.700;9.210;2022-09-17T09:13:39;4.70;;;1.77;;
32138;SDS011;18644;48.700;9.210;2022-09-17T09:16:10;9.05;;;1.98;;
32138;SDS011;18644;48.700;9.210;2022-09-17T09:18:43;7.07;;;1.50;;
32138;SDS011;18644;48.700;9.210;2022-09-17T09:21:16;1.90;;;1.10;;
32138;SDS011;18644;48.700;9.210;2022-09-17T09:23:51;3.67;;;1.02;;
32138;SDS011;18644;48.700;9.210;2022-09-17T09:26:22;5.40;;;1.30;;
32138;SDS011;18644;48.700;9.210;2022-09-17T09:29:03;5.55;;;1.25;;
32138;SDS011;18644;48.700;9.210;2022-09-17T09:34:32;7.05;;;1.45;;
32138;SDS011;18644;48.700;9.210;2022-09-17T09:37:04;5.97;;;1.35;;
32138;SDS011;18644;48.700;9.210;2022-09-17T09:39:41;6.45;;;1.55;;
32138;SDS011;18644;48.700;9.210;2022-09-17T09:42:10;5.82;;;1.90;;
32138;SDS011;18644;48.700;9.210;2022-09-17T09:44:45;5.45;;;1.50;;
32138;SDS011;18644;48.700;9.210;2022-09-17T09:47:24;8.55;;;2.05;;
32138;SDS011;18644;48.700;9.210;2022-09-17T09:50:16;3.75;;;1.27;;
32138;SDS011;18644;48.700;9.210;2022-09-17T09:52:58;3.42;;;1.10;;
32138;SDS011;18644;48.700;9.210;2022-09-17T09:58:29;3.80;;;1.23;;
32138;SDS011;18644;48.700;9.210;2022-09-17T10:01:01;5.55;;;1.50;;
32138;SDS011;18644;48.700;9.210;2022-09-17T10:03:29;4.78;;;1.35;;
32138;SDS011;18644;48.700;9.210;2022-09-17T10:05:59;3.30;;;1.27;;
32138;SDS011;18644;48.700;9.210;2022-09-17T10:08:29;4.13;;;1.40;;
32138;SDS011;18644;48.700;9.210;2022-09-17T10:10:58;5.28;;;1.75;;
32138;SDS011;18644;48.700;9.210;2022-09-17T10:13:27;4.88;;;1.48;;
32138;SDS011;18644;48.700;9.210;2022-09-17T10:15:56;5.82;;;1.48;;
32138;SDS011;18644;48.700;9.210;2022-09-17T10:18:42;5.05;;;1.35;;
32138;SDS011;18644;48.700;9.210;2022-09-17T10:21:17;3.83;;;1.38;;
32138;SDS011;18644;48.700;9.210;2022-09-17T10:23:47;3.88;;;1.38;;
32138;SDS011;18644;48.700;9.210;2022-09-17T10:26:19;5.30;;;1.30;;
32138;SDS011;18644;48.700;9.210;2022-09-17T10:28:50;6.30;;;1.10;;
32138;SDS011;18644;48.700;9.210;2022-09-17T10:31:20;5.05;;;1.08;;
32138;SDS011;18644;48.700;9.210;2022-09-17T10:33:51;3.65;;;1.45;;
32138;SDS011;18644;48.700;9.210;2022-09-17T10:36:37;5.10;;;1.13;;
32138;SDS011;18644;48.700;9.210;2022-09-17T10:39:27;1.10;;;0.82;;
32138;SDS011;18644;48.700;9.210;2022-09-17T10:41:58;3.00;;;1.13;;
32138;SDS011;18644;48.700;9.210;2022-09-17T10:44:28;3.67;;;1.15;;
32138;SDS011;18644;48.700;9.210;2022-09-17T10:47:03;1.38;;;0.85;;
32138;SDS011;18644;48.700;9.210;2022-09-17T10:49:38;3.13;;;1.08;;
32138;SDS011;18644;48.700;9.210;2022-09-17T10:52:09;6.07;;;0.93;;
32138;SDS011;18644;48.700;9.210;2022-09-17T10:57:52;3.05;;;1.00;;
32138;SDS011;18644;48.700;9.210;2022-09-17T11:00:43;2.90;;;0.88;;
32138;SDS011;18644;48.700;9.210;2022-09-17T11:09:44;3.00;;;1.02;;
32138;SDS011;18644;48.700;9.210;2022-09-17T11:12:29;1.50;;;0.77;;
32138;SDS011;18644;48.700;9.210;2022-09-17T11:15:10;2.50;;;0.90;;
32138;SDS011;18644;48.700;9.210;2022-09-17T11:17:57;1.42;;;0.90;;
32138;SDS011;18644;48.700;9.210;2022-09-17T11:20:47;3.95;;;1.00;;
32138;SDS011;18644;48.700;9.210;2022-09-17T11:23:48;2.30;;;0.80;;
32138;SDS011;18644;48.700;9.210;2022-09-17T11:26:35;2.65;;;0.80;;
32138;SDS011;18644;48.700;9.210;2022-09-17T11:29:23;1.23;;;0.68;;
32138;SDS011;18644;48.700;9.210;2022-09-17T11:32:12;1.95;;;0.68;;
32138;SDS011;18644;48.700;9.210;2022-09-17T11:34:56;1.33;;;0.70;;
32138;SDS011;18644;48.700;9.210;2022-09-17T11:37:30;1.10;;;0.60;;
32138;SDS011;18644;48.700;9.210;2022-09-17T11:40:03;1.23;;;0.70;;
32138;SDS011;18644;48.700;9.210;2022-09-17T11:42:41;0.68;;;0.60;;
32138;SDS011;18644;48.700;9.210;2022-09-17T11:45:13;3.78;;;0.68;;
32138;SDS011;18644;48.700;9.210;2022-09-17T11:50:16;2.25;;;0.88;;
32138;SDS011;18644;48.700;9.210;2022-09-17T11:52:56;1.20;;;0.88;;
32138;SDS011;18644;48.700;9.210;2022-09-17T11:55:32;2.70;;;0.90;;
32138;SDS011;18644;48.700;9.210;2022-09-17T11:58:07;1.20;;;0.80;;
32138;SDS011;18644;48.700;9.210;2022-09-17T12:00:41;2.42;;;1.10;;
32138;SDS011;18644;48.700;9.210;2022-09-17T12:03:16;2.10;;;0.80;;
32138;SDS011;18644;48.700;9.210;2022-09-17T12:05:50;1.75;;;0.68;;
32138;SDS011;18644;48.700;9.210;2022-09-17T12:08:21;1.45;;;0.80;;
32138;SDS011;18644;48.700;9.210;2022-09-17T12:10:54;2.70;;;1.05;;
32138;SDS011;18644;48.700;9.210;2022-09-17T12:13:32;2.65;;;0.90;;
32138;SDS011;18644;48.700;9.210;2022-09-17T12:16:08;1.42;;;0.73;;
32138;SDS011;18644;48.700;9.210;2022-09-17T12:18:45;2.10;;;0.88;;
32138;SDS011;18644;48.700;9.210;2022-09-17T12:21:18;1.50;;;0.90;;
32138;SDS011;18644;48.700;9.210;2022-09-17T12:23:49;1.50;;;0.60;;
32138;SDS011;18644;48.700;9.210;2022-09-17T12:32:41;1.65;;;1.10;;
32138;SDS011;18644;48.700;9.210;2022-09-17T12:35:24;1.35;;;0.80;;
32138;SDS011;18644;48.700;9.210;2022-09-17T12:38:19;1.83;;;0.90;;
32138;SDS011;18644;48.700;9.210;2022-09-17T12:41:10;1.40;;;0.63;;
32138;SDS011;18644;48.700;9.210;2022-09-17T12:43:50;4.82;;;0.80;;
32138;SDS011;18644;48.700;9.210;2022-09-17T12:46:40;1.60;;;0.90;;
32138;SDS011;18644;48.700;9.210;2022-09-17T12:52:27;1.63;;;0.88;;
32138;SDS011;18644;48.700;9.210;2022-09-17T12:55:20;1.25;;;0.63;;
32138;SDS011;18644;48.700;9.210;2022-09-17T12:58:04;3.53;;;0.73;;
32138;SDS011;18644;48.700;9.210;2022-09-17T13:00:46;2.00;;;0.63;;
32138;SDS011;18644;48.700;9.210;2022-09-17T13:03:18;1.10;;;0.60;;
32138;SDS011;18644;48.700;9.210;2022-09-17T13:05:58;0.32;;;0.32;;
32138;SDS011;18644;48.700;9.210;2022-09-17T13:08:55;1.35;;;0.68;;
32138;SDS011;18644;48.700;9.210;2022-09-17T13:12:02;1.05;;;0.50;;
32138;SDS011;18644;48.700;9.210;2022-09-17T13:14:46;0.95;;;0.52;;
32138;SDS011;18644;48.700;9.210;2022-09-17T13:17:30;1.00;;;0.60;;
32138;SDS011;18644;48.700;9.210;2022-09-17T13:20:09;1.75;;;0.70;;
32138;SDS011;18644;48.700;9.210;2022-09-17T13:22:43;0.75;;;0.50;;
32138;SDS011;18644;48.700;9.210;2022-09-17T13:25:13;1.25;;;0.60;;
32138;SDS011;18644;48.700;9.210;2022-09-17T13:27:43;1.70;;;0.45;;
32138;SDS011;18644;48.700;9.210;2022-09-17T13:30:11;1.13;;;0.50;;
32138;SDS011;18644;48.700;9.210;2022-09-17T13:32:45;0.80;;;0.43;;
32138;SDS011;18644;48.700;9.210;2022-09-17T13:38:16;0.95;;;0.50;;
32138;SDS011;18644;48.700;9.210;2022-09-17T13:40:47;0.77;;;0.55;;
32138;SDS011;18644;48.700;9.210;2022-09-17T13:43:15;0.57;;;0.50;;
32138;SDS011;18644;48.700;9.210;2022-09-17T13:46:07;1.38;;;0.68;;
32138;SDS011;18644;48.700;9.210;2022-09-17T13:48:43;0.95;;;0.80;;
32138;SDS011;18644;48.700;9.210;2022-09-17T13:54:33;1.50;;;0.63;;
32138;SDS011;18644;48.700;9.210;2022-09-17T13:57:11;0.95;;;0.70;;
32138;SDS011;18644;48.700;9.210;2022-09-17T13:59:50;1.65;;;0.60;;
32138;SDS011;18644;48.700;9.210;2022-09-17T14:02:31;1.30;;;0.75;;
32138;SDS011;18644;48.700;9.210;2022-09-17T14:08:12;1.17;;;1.02;;
32138;SDS011;18644;48.700;9.210;2022-09-17T14:10:55;1.85;;;0.80;;
32138;SDS011;18644;48.700;9.210;2022-09-17T14:14:14;1.00;;;0.63;;
32138;SDS011;18644;48.700;9.210;2022-09-17T14:17:06;0.90;;;0.52;;
32138;SDS011;18644;48.700;9.210;2022-09-17T14:19:33;1.00;;;0.70;;
32138;SDS011;18644;48.700;9.210;2022-09-17T14:22:13;2.63;;;0.75;;
32138;SDS011;18644;48.700;9.210;2022-09-17T14:24:44;2.57;;;0.60;;
32138;SDS011;18644;48.700;9.210;2022-09-17T14:27:14;0.55;;;0.47;;
32138;SDS011;18644;48.700;9.210;2022-09-17T14:30:01;1.73;;;0.70;;
32138;SDS011;18644;48.700;9.210;2022-09-17T14:32:38;0.85;;;0.60;;
32138;SDS011;18644;48.700;9.210;2022-09-17T14:35:14;3.25;;;0.80;;
32138;SDS011;18644;48.700;9.210;2022-09-17T14:37:47;0.68;;;0.68;;
32138;SDS011;18644;48.700;9.210;2022-09-17T14:40:22;1.15;;;0.60;;
32138;SDS011;18644;48.700;9.210;2022-09-17T14:42:51;1.77;;;0.80;;
32138;SDS011;18644;48.700;9.210;2022-09-17T14:45:22;1.05;;;0.60;;
32138;SDS011;18644;48.700;9.210;2022-09-17T14:56:45;1.48;;;0.68;;
32138;SDS011;18644;48.700;9.210;2022-09-17T14:59:19;1.58;;;0.50;;
32138;SDS011;18644;48.700;9.210;2022-09-17T15:02:28;1.13;;;0.70;;
32138;SDS011;18644;48.700;9.210;2022-09-17T15:05:01;0.60;;;0.60;;
32138;SDS011;18644;48.700;9.210;2022-09-17T15:07:41;1.23;;;0.70;;
32138;SDS011;18644;48.700;9.210;2022-09-17T15:10:11;1.58;;;0.90;;
32138;SDS011;18644;48.700;9.210;2022-09-17T15:12:42;1.42;;;1.20;;
32138;SDS011;18644;48.700;9.210;2022-09-17T15:15:13;3.90;;;1.30;;
32138;SDS011;18644;48.700;9.210;2022-09-17T15:17:45;3.05;;;1.83;;
32138;SDS011;18644;48.700;9.210;2022-09-17T15:20:15;5.07;;;1.80;;
32138;SDS011;18644;48.700;9.210;2022-09-17T15:25:16;1.45;;;1.05;;
32138;SDS011;18644;48.700;9.210;2022-09-17T15:27:50;2.60;;;1.10;;
32138;SDS011;18644;48.700;9.210;2022-09-17T15:30:21;2.35;;;1.38;;
32138;SDS011;18644;48.700;9.210;2022-09-17T15:32:50;0.93;;;0.82;;
32138;SDS011;18644;48.700;9.210;2022-09-17T15:35:20;3.30;;;1.30;;
32138;SDS011;18644;48.700;9.210;2022-09-17T15:37:54;2.05;;;0.90;;
32138;SDS011;18644;48.700;9.210;2022-09-17T15:40:23;3.20;;;1.10;;
32138;SDS011;18644;48.700;9.210;2022-09-17T15:43:04;1.85;;;1.20;;
32138;SDS011;18644;48.700;9.210;2022-09-17T15:45:41;2.83;;;1.30;;
32138;SDS011;18644;48.700;9.210;2022-09-17T15:48:16;2.67;;;1.00;;
32138;SDS011;18644;48.700;9.210;2022-09-17T15:50:53;1.23;;;0.90;;
32138;SDS011;18644;48.700;9.210;2022-09-17T15:53:22;1.83;;;1.10;;
32138;SDS011;18644;48.700;9.210;2022-09-17T15:55:58;2.33;;;0.90;;
32138;SDS011;18644;48.700;9.210;2022-09-17T15:58:31;2.08;;;0.95;;
32138;SDS011;18644;48.700;9.210;2022-09-17T16:06:53;3.58;;;0.93;;
32138;SDS011;18644;48.700;9.210;2022-09-17T16:09:44;2.83;;;1.20;;
32138;SDS011;18644;48.700;9.210;2022-09-17T16:12:13;1.92;;;1.23;;
32138;SDS011;18644;48.700;9.210;2022-09-17T16:14:57;2.75;;;1.30;;
32138;SDS011;18644;48.700;9.210;2022-09-17T16:17:26;1.33;;;0.88;;
32138;SDS011;18644;48.700;9.210;2022-09-17T16:20:04;2.80;;;1.10;;
32138;SDS011;18644;48.700;9.210;2022-09-17T16:22:37;2.42;;;1.23;;
32138;SDS011;18644;48.700;9.210;2022-09-17T16:25:04;3.13;;;1.10;;